This is the latest recevied weather packets stored in our database for station/object EA1RCC-1. If no packets are shown the sender has not sent any weather packets the latest 10 day(s).
| Time | Temp. | Humidity | Pressure | Rain* | Wind** | Luminosity | Snow |
|---|---|---|---|---|---|---|---|
| 1777824896 | 17.22° C | 11% | 1010 hPa | 0 mm | - | - | - |
| 1777824295 | 16.67° C | 11% | 1010 hPa | 0 mm | - | - | - |
| 1777823694 | 17.22° C | 11% | 1010 hPa | 0 mm | - | - | - |
| 1777820688 | 18.33° C | 11% | 1010 hPa | 0 mm | - | - | - |
| 1777820087 | 18.33° C | 11% | 1010 hPa | 0 mm | - | - | - |
| 1777811017 | 17.22° C | 11% | 1012 hPa | 0 mm | - | - | - |
| 1777805943 | 17.22° C | 11% | 1012 hPa | 0 mm | - | - | - |
| 1777802335 | 14.44° C | 18% | 1013 hPa | 0 mm | - | - | - |
| 1777801133 | 13.89° C | 20% | 1013 hPa | 0 mm | - | - | - |
| 1777798128 | 13.89° C | 22% | 1013 hPa | 0 mm | - | - | - |
| 1777796925 | 14.44° C | 24% | 1014 hPa | 0 mm | - | - | - |
| 1777795120 | 10° C | 28% | 1014 hPa | 0 mm | - | - | - |
| 1777794520 | 10.56° C | 28% | 1014 hPa | 0 mm | - | - | - |
| 1777785371 | 6.11° C | 10% | - | 0 mm | - | - | - |
| 1777781633 | 5° C | 93% | 1014 hPa | 0 mm | - | - | - |
| 1777773080 | 8.33° C | 93% | 1015 hPa | 0 mm | - | - | - |
| 1777772479 | 5.56° C | 10% | - | 0 mm | - | - | - |
| 1777771877 | 6.11° C | 10% | - | 0 mm | - | - | - |
| 1777771276 | 6.67° C | 10% | - | 0 mm | - | - | - |
| 1777769473 | 8.33° C | 10% | - | 0 mm | - | - | - |
| 1777768139 | 8.89° C | 10% | - | 0 mm | - | - | - |
| 1777767538 | 9.44° C | 10% | - | 0 mm | - | - | - |
| 1777762466 | 7.78° C | 94% | 1016 hPa | 0 mm | - | - | - |
| 1777758727 | 10.56° C | 94% | 1016 hPa | 0 mm | - | - | - |
| 1777753791 | 9.44° C | 82% | 1015 hPa | 0 mm | - | - | - |
* Rain latest hour (hover to see other rain measurements)
** Current wind speed in m/s (hover to see current wind gust speed)